Time;durP1;ratioP1;P1;durP2;ratioP2;P2;SDS_P1;SDS_P2;PMS_P1;PMS_P2;Temp;Humidity;BMP_temperature;BMP_pressure;BME280_temperature;BME280_humidity;BME280_pressure;Samples;Min_cycle;Max_cycle;Signal;HPM_P1;HPM_P2
2022/01/23 00:01:52;;;;;;;385.52;26.45;;;;;;;;;;5022898;28;20061;-63
2022/01/23 00:04:19;;;;;;;414.13;26.63;;;;;;;;;;5023561;28;20053;-64
2022/01/23 00:06:52;;;;;;;405.98;23.27;;;;;;;;;;5009811;28;20050;-63
2022/01/23 00:09:18;;;;;;;387.20;25.58;;;;;;;;;;5023117;28;20077;-63
2022/01/23 00:11:52;;;;;;;593.83;30.13;;;;;;;;;;5023829;28;20141;-63
2022/01/23 00:17:22;;;;;;;442.60;26.33;;;;;;;;;;5025002;28;20077;-64
2022/01/23 00:19:52;;;;;;;481.05;25.73;;;;;;;;;;5018505;28;20081;-63
2022/01/23 00:22:25;;;;;;;289.65;22.85;;;;;;;;;;5025230;28;20057;-63
2022/01/23 00:30:33;;;;;;;478.77;25.25;;;;;;;;;;5023271;28;20049;-64
2022/01/23 00:33:01;;;;;;;384.27;21.07;;;;;;;;;;5023451;28;20045;-63
2022/01/23 00:35:28;;;;;;;488.77;27.25;;;;;;;;;;5020336;28;20408;-64
2022/01/23 00:37:57;;;;;;;554.92;29.05;;;;;;;;;;5021204;28;20148;-63
2022/01/23 00:40:23;;;;;;;;;;;;;;;;;;5025201;28;20053;-63
2022/01/23 00:42:49;;;;;;;560.97;28.75;;;;;;;;;;5023824;28;19964;-63
2022/01/23 00:47:57;;;;;;;;;;;;;;;;;;5020818;28;20383;-63
2022/01/23 00:50:29;;;;;;;476.60;20.75;;;;;;;;;;5021496;28;19983;-63
2022/01/23 00:52:55;;;;;;;584.75;28.80;;;;;;;;;;5020977;28;20517;-64
2022/01/23 00:55:22;;;;;;;552.08;25.58;;;;;;;;;;5025208;28;20141;-63
2022/01/23 00:57:55;;;;;;;580.95;27.88;;;;;;;;;;5021057;28;20088;-64
2022/01/23 01:00:21;;;;;;;444.77;25.55;;;;;;;;;;5023480;28;20164;-64
2022/01/23 01:02:48;;;;;;;559.08;29.10;;;;;;;;;;5015951;28;20136;-63
2022/01/23 01:05:21;;;;;;;542.45;29.52;;;;;;;;;;5015701;28;20533;-64
2022/01/23 01:07:48;;;;;;;454.35;26.50;;;;;;;;;;5016707;28;20132;-64
2022/01/23 01:10:24;;;;;;;526.97;26.92;;;;;;;;;;5016843;28;20049;-63
2022/01/23 01:12:58;;;;;;;376.08;21.42;;;;;;;;;;5015600;28;20063;-64
2022/01/23 01:15:34;;;;;;;306.80;21.73;;;;;;;;;;5020326;28;20104;-63
2022/01/23 01:31:46;;;;;;;459.10;22.60;;;;;;;;;;5018176;28;20144;-63
2022/01/23 01:34:30;;;;;;;529.80;25.98;;;;;;;;;;5020347;28;20139;-64
2022/01/23 01:36:57;;;;;;;491.07;23.70;;;;;;;;;;5019569;28;20048;-64
2022/01/23 01:39:40;;;;;;;448.42;19.98;;;;;;;;;;5024190;28;20582;-63
2022/01/23 01:42:07;;;;;;;527.05;26.08;;;;;;;;;;5024155;28;20064;-63
2022/01/23 01:44:34;;;;;;;588.67;28.02;;;;;;;;;;5021692;28;20121;-63
2022/01/23 01:47:00;;;;;;;685.83;34.63;;;;;;;;;;5023791;28;20057;-64
2022/01/23 01:49:31;;;;;;;579.45;27.27;;;;;;;;;;5023537;28;20773;-63
2022/01/23 01:51:58;;;;;;;516.70;22.88;;;;;;;;;;5024756;28;20051;-63
2022/01/23 01:54:27;;;;;;;546.95;26.60;;;;;;;;;;5024642;28;20568;-63
2022/01/23 01:57:05;;;;;;;402.88;20.55;;;;;;;;;;5023692;28;20160;-63
2022/01/23 02:10:33;;;;;;;394.35;17.70;;;;;;;;;;5024755;28;20140;-63
2022/01/23 02:13:12;;;;;;;503.88;21.98;;;;;;;;;;5022986;28;20055;-63
2022/01/23 02:22:32;;;;;;;285.30;13.60;;;;;;;;;;4991207;28;20132;-64
2022/01/23 02:51:51;;;;;;;316.52;14.98;;;;;;;;;;5020942;28;20072;-63
2022/01/23 02:57:10;;;;;;;465.83;21.52;;;;;;;;;;5021991;28;20131;-63
2022/01/23 02:59:38;;;;;;;;;;;;;;;;;;5023423;28;20076;-63
2022/01/23 03:02:24;;;;;;;265.00;12.52;;;;;;;;;;5025733;28;19964;-63
2022/01/23 03:04:53;;;;;;;393.65;16.90;;;;;;;;;;5023778;28;20065;-64
2022/01/23 03:07:54;;;;;;;230.88;12.57;;;;;;;;;;5022028;28;20566;-63
2022/01/23 03:10:28;;;;;;;280.42;12.48;;;;;;;;;;5021614;28;20133;-64
2022/01/23 03:24:07;;;;;;;248.95;9.95;;;;;;;;;;5023354;28;20049;-63
2022/01/23 03:24:12;;;;;;;380.67;13.90;;;;;;;;;;5023122;28;20130;-63
2022/01/23 03:24:23;;;;;;;397.00;13.30;;;;;;;;;;5023082;28;20081;-63
2022/01/23 03:27:04;;;;;;;486.50;21.73;;;;;;;;;;5024781;28;20053;-63
2022/01/23 03:32:40;;;;;;;210.38;11.65;;;;;;;;;;5022744;28;20124;-63
2022/01/23 03:35:06;;;;;;;309.95;13.40;;;;;;;;;;5020323;28;20141;-64
2022/01/23 03:37:33;;;;;;;263.00;13.60;;;;;;;;;;5023479;28;20042;-64
2022/01/23 03:39:59;;;;;;;300.98;12.30;;;;;;;;;;5026957;28;20049;-63
2022/01/23 03:42:27;;;;;;;188.98;8.75;;;;;;;;;;5020845;28;20423;-64
2022/01/23 03:45:56;;;;;;;;;;;;;;;;;;5031134;28;20754;-63
2022/01/23 03:48:01;;;;;;;229.95;9.73;;;;;;;;;;5013108;28;19925;-64
2022/01/23 03:50:27;;;;;;;99.30;6.22;;;;;;;;;;5023909;28;20057;-63
2022/01/23 03:52:54;;;;;;;217.60;9.48;;;;;;;;;;5024351;28;20148;-63
2022/01/23 03:55:20;;;;;;;294.80;12.77;;;;;;;;;;5020109;28;20132;-63
2022/01/23 03:57:53;;;;;;;242.88;11.38;;;;;;;;;;5024198;28;20108;-64
2022/01/23 04:00:20;;;;;;;246.95;10.57;;;;;;;;;;5026024;28;20472;-63
2022/01/23 04:02:46;;;;;;;376.48;14.10;;;;;;;;;;5021979;28;20148;-63
2022/01/23 04:05:13;;;;;;;438.92;18.65;;;;;;;;;;5025268;28;20369;-64
2022/01/23 04:07:40;;;;;;;311.38;14.40;;;;;;;;;;5023632;28;20132;-63
2022/01/23 04:10:08;;;;;;;182.15;10.75;;;;;;;;;;5022413;28;20151;-63
2022/01/23 04:13:07;;;;;;;192.50;9.93;;;;;;;;;;5021885;28;20505;-64
2022/01/23 04:15:43;;;;;;;248.05;11.95;;;;;;;;;;5021916;28;20502;-64
2022/01/23 04:32:19;;;;;;;254.93;16.52;;;;;;;;;;5018517;28;20581;-64
2022/01/23 04:46:02;;;;;;;311.17;14.45;;;;;;;;;;5021320;28;20041;-64
2022/01/23 04:49:04;;;;;;;267.10;12.68;;;;;;;;;;5021810;28;20071;-64
2022/01/23 04:59:46;;;;;;;212.43;11.18;;;;;;;;;;5022862;28;20160;-64
2022/01/23 05:05:07;;;;;;;80.63;6.65;;;;;;;;;;5022957;28;20075;-63
2022/01/23 05:07:34;;;;;;;157.77;9.18;;;;;;;;;;5025333;28;20593;-63
2022/01/23 05:10:00;;;;;;;121.97;8.45;;;;;;;;;;5025741;28;20819;-64
2022/01/23 05:12:31;;;;;;;116.68;7.63;;;;;;;;;;5025092;28;20966;-63
2022/01/23 05:15:06;;;;;;;156.20;11.27;;;;;;;;;;5024860;28;20046;-64
2022/01/23 05:17:34;;;;;;;135.18;9.77;;;;;;;;;;5022406;28;20156;-63
2022/01/23 05:20:00;;;;;;;159.20;11.18;;;;;;;;;;5025908;28;20124;-63
2022/01/23 05:22:45;;;;;;;341.15;16.15;;;;;;;;;;5025020;28;20143;-64
2022/01/23 05:25:27;;;;;;;266.45;13.05;;;;;;;;;;5026383;28;20045;-64
2022/01/23 05:27:54;;;;;;;411.42;21.98;;;;;;;;;;5024009;28;20140;-63
2022/01/23 05:30:22;;;;;;;297.85;15.30;;;;;;;;;;5022476;28;20060;-64
2022/01/23 05:32:48;;;;;;;207.18;11.30;;;;;;;;;;5025577;28;20084;-63
2022/01/23 05:35:21;;;;;;;321.25;16.05;;;;;;;;;;5028703;28;20120;-64
2022/01/23 05:37:48;;;;;;;277.08;14.13;;;;;;;;;;5026618;28;20577;-64
2022/01/23 05:40:17;;;;;;;234.38;13.00;;;;;;;;;;5024678;28;20051;-64
2022/01/23 05:42:43;;;;;;;326.30;15.30;;;;;;;;;;5023195;28;20076;-63
2022/01/23 05:45:10;;;;;;;256.13;14.30;;;;;;;;;;5024578;28;20045;-64
2022/01/23 05:47:36;;;;;;;406.48;18.52;;;;;;;;;;5024068;28;20128;-64
2022/01/23 05:50:04;;;;;;;431.25;19.48;;;;;;;;;;5025680;28;20120;-64
2022/01/23 05:52:31;;;;;;;345.38;16.45;;;;;;;;;;5025586;28;20445;-64
2022/01/23 05:54:58;;;;;;;308.08;14.82;;;;;;;;;;5024597;28;20045;-63
2022/01/23 05:57:24;;;;;;;360.30;19.00;;;;;;;;;;5023698;28;20049;-63
2022/01/23 05:59:51;;;;;;;411.80;20.08;;;;;;;;;;5027169;28;20132;-64
2022/01/23 06:02:17;;;;;;;341.75;16.92;;;;;;;;;;5023702;28;20045;-63
2022/01/23 06:04:50;;;;;;;497.95;24.63;;;;;;;;;;5025141;28;20045;-63
2022/01/23 06:07:17;;;;;;;377.60;17.55;;;;;;;;;;5022256;28;20156;-64
2022/01/23 06:09:43;;;;;;;277.02;16.52;;;;;;;;;;5024511;28;20041;-64
2022/01/23 06:12:16;;;;;;;228.02;13.55;;;;;;;;;;5024368;28;20496;-63
2022/01/23 06:14:43;;;;;;;239.60;13.43;;;;;;;;;;5023325;28;20055;-63
2022/01/23 06:17:09;;;;;;;319.33;16.40;;;;;;;;;;5024767;28;20076;-63
2022/01/23 06:19:37;;;;;;;566.97;26.65;;;;;;;;;;5020654;28;20045;-64
2022/01/23 06:22:03;;;;;;;;;;;;;;;;;;5023672;28;20140;-64
2022/01/23 06:24:31;;;;;;;420.35;20.55;;;;;;;;;;5025306;28;20008;-64
2022/01/23 06:27:05;;;;;;;377.08;18.60;;;;;;;;;;5023810;28;20077;-64
2022/01/23 06:29:31;;;;;;;391.13;17.15;;;;;;;;;;5022712;28;20080;-64
2022/01/23 06:31:58;;;;;;;352.57;19.03;;;;;;;;;;5029306;28;20084;-64
2022/01/23 06:34:28;;;;;;;406.23;19.50;;;;;;;;;;5020740;28;20351;-64
2022/01/23 06:36:55;;;;;;;254.35;14.02;;;;;;;;;;5023820;28;20138;-64
2022/01/23 06:39:23;;;;;;;346.95;15.82;;;;;;;;;;5026234;28;20164;-64
2022/01/23 06:41:50;;;;;;;240.57;12.35;;;;;;;;;;5007167;28;20045;-64
2022/01/23 06:44:17;;;;;;;268.83;14.73;;;;;;;;;;5023730;28;20128;-64
2022/01/23 06:46:44;;;;;;;421.25;22.42;;;;;;;;;;5027815;28;20103;-64
2022/01/23 06:49:10;;;;;;;182.45;12.30;;;;;;;;;;5026825;28;20517;-64
2022/01/23 06:51:37;;;;;;;345.38;16.80;;;;;;;;;;5021164;28;20826;-64
2022/01/23 06:54:04;;;;;;;300.08;17.88;;;;;;;;;;5024020;28;20133;-64
2022/01/23 06:56:31;;;;;;;334.63;15.07;;;;;;;;;;5023287;28;20080;-64
2022/01/23 06:58:58;;;;;;;207.77;12.65;;;;;;;;;;5020624;28;20136;-64
2022/01/23 07:01:24;;;;;;;221.20;12.57;;;;;;;;;;5023831;28;20073;-64
2022/01/23 07:03:51;;;;;;;228.20;11.93;;;;;;;;;;5021334;28;20053;-64
2022/01/23 07:06:18;;;;;;;;;;;;;;;;;;5023355;28;20060;-64
2022/01/23 07:09:04;;;;;;;469.05;19.65;;;;;;;;;;5019355;28;20008;-64
2022/01/23 07:11:31;;;;;;;271.95;14.82;;;;;;;;;;5023507;28;20564;-64
2022/01/23 07:13:58;;;;;;;333.52;18.85;;;;;;;;;;5019628;28;20670;-64
2022/01/23 07:16:24;;;;;;;410.20;19.20;;;;;;;;;;5022322;28;20094;-64
2022/01/23 07:18:52;;;;;;;378.52;20.48;;;;;;;;;;5022435;28;20041;-64
2022/01/23 07:21:19;;;;;;;476.27;21.85;;;;;;;;;;5026888;28;20166;-64
2022/01/23 07:23:50;;;;;;;336.48;17.85;;;;;;;;;;5023544;28;20069;-64
2022/01/23 07:26:26;;;;;;;364.92;21.38;;;;;;;;;;5022297;28;20822;-64
2022/01/23 07:28:54;;;;;;;179.65;14.63;;;;;;;;;;5022623;28;20133;-64
2022/01/23 07:34:01;;;;;;;186.38;11.40;;;;;;;;;;5021927;28;20410;-64
2022/01/23 07:36:27;;;;;;;253.50;15.25;;;;;;;;;;5019965;28;20049;-63
2022/01/23 07:38:54;;;;;;;204.60;14.18;;;;;;;;;;5021295;28;20081;-63
2022/01/23 07:41:21;;;;;;;220.63;13.05;;;;;;;;;;5017731;28;20050;-64
2022/01/23 07:43:47;;;;;;;242.52;13.68;;;;;;;;;;5019526;28;20045;-63
2022/01/23 07:46:15;;;;;;;391.70;20.60;;;;;;;;;;5021062;28;20501;-64
2022/01/23 07:48:42;;;;;;;340.05;18.33;;;;;;;;;;5021180;28;20134;-63
2022/01/23 07:51:08;;;;;;;427.42;22.33;;;;;;;;;;5023585;28;20916;-63
2022/01/23 07:53:35;;;;;;;489.83;22.73;;;;;;;;;;5024972;28;20124;-64
2022/01/23 07:56:07;;;;;;;197.65;12.10;;;;;;;;;;5023514;28;20974;-64
2022/01/23 07:58:34;;;;;;;301.58;17.30;;;;;;;;;;5023360;28;20573;-63
2022/01/23 08:01:00;;;;;;;400.38;21.65;;;;;;;;;;5022252;28;20102;-63
2022/01/23 08:03:27;;;;;;;468.20;21.43;;;;;;;;;;5020413;28;20634;-65
2022/01/23 08:05:53;;;;;;;309.98;15.60;;;;;;;;;;5021295;28;20044;-64
2022/01/23 08:08:20;;;;;;;502.42;25.17;;;;;;;;;;5021106;28;20053;-64
2022/01/23 08:10:54;;;;;;;423.25;19.45;;;;;;;;;;5020619;28;20077;-64
2022/01/23 08:13:20;;;;;;;663.58;30.95;;;;;;;;;;5022560;28;20127;-64
2022/01/23 08:15:47;;;;;;;242.03;14.03;;;;;;;;;;5023320;28;20131;-64
2022/01/23 08:18:15;;;;;;;406.77;20.77;;;;;;;;;;5023063;28;20375;-64
2022/01/23 08:20:43;;;;;;;625.58;33.67;;;;;;;;;;5020402;28;20053;-64
2022/01/23 08:23:09;;;;;;;263.95;14.23;;;;;;;;;;5021110;28;20055;-64
2022/01/23 08:25:42;;;;;;;566.42;26.00;;;;;;;;;;5017007;28;20129;-64
2022/01/23 08:28:09;;;;;;;472.92;21.88;;;;;;;;;;5021474;28;20081;-64
2022/01/23 08:30:35;;;;;;;717.67;39.70;;;;;;;;;;5024412;28;20068;-64
2022/01/23 08:33:09;;;;;;;510.38;22.75;;;;;;;;;;5025415;28;20497;-64
2022/01/23 08:35:35;;;;;;;590.42;27.00;;;;;;;;;;5009146;28;20107;-64
2022/01/23 08:38:02;;;;;;;354.55;17.05;;;;;;;;;;5023954;28;20061;-64
2022/01/23 08:40:47;;;;;;;544.55;25.95;;;;;;;;;;5028042;28;20128;-65
2022/01/23 08:43:16;;;;;;;610.47;27.27;;;;;;;;;;5021816;28;20088;-63
2022/01/23 08:45:42;;;;;;;574.88;25.20;;;;;;;;;;5025776;28;20060;-64
2022/01/23 08:48:09;;;;;;;436.43;20.80;;;;;;;;;;5025526;28;20132;-64
2022/01/23 08:50:35;;;;;;;661.50;29.53;;;;;;;;;;5026934;28;20050;-64
2022/01/23 08:53:08;;;;;;;446.38;21.73;;;;;;;;;;5022668;28;20092;-64
2022/01/23 08:55:35;;;;;;;272.52;14.55;;;;;;;;;;5026038;28;20084;-64
2022/01/23 08:58:01;;;;;;;461.05;21.77;;;;;;;;;;5028252;28;20132;-64
2022/01/23 09:00:28;;;;;;;353.73;18.63;;;;;;;;;;5028403;28;20057;-64
2022/01/23 09:02:55;;;;;;;381.25;18.38;;;;;;;;;;5011282;28;20053;-64
2022/01/23 09:05:23;;;;;;;202.07;10.90;;;;;;;;;;5027714;28;20108;-64
2022/01/23 09:07:49;;;;;;;362.92;18.48;;;;;;;;;;5026250;28;20085;-64
2022/01/23 09:10:24;;;;;;;527.17;24.97;;;;;;;;;;5026362;28;20132;-64
2022/01/23 09:15:33;;;;;;;525.17;24.80;;;;;;;;;;5021528;28;20078;-64
2022/01/23 09:17:59;;;;;;;684.03;37.05;;;;;;;;;;5027071;28;20081;-63
2022/01/23 09:20:26;;;;;;;275.40;15.75;;;;;;;;;;5022606;28;20413;-64
2022/01/23 09:22:52;;;;;;;205.73;11.80;;;;;;;;;;5027984;28;20085;-64
2022/01/23 09:25:19;;;;;;;175.73;10.88;;;;;;;;;;5023928;28;20127;-63
2022/01/23 09:27:45;;;;;;;474.67;20.92;;;;;;;;;;5020481;28;20557;-64
2022/01/23 09:30:20;;;;;;;603.05;29.95;;;;;;;;;;5005801;28;20798;-64
2022/01/23 09:32:54;;;;;;;718.13;38.63;;;;;;;;;;5021786;28;20098;-64
2022/01/23 09:35:20;;;;;;;574.65;27.13;;;;;;;;;;5022153;28;20516;-64
2022/01/23 09:37:47;;;;;;;605.17;28.42;;;;;;;;;;5019347;28;20670;-64
2022/01/23 09:40:14;;;;;;;709.47;30.30;;;;;;;;;;5020572;28;20133;-64
2022/01/23 09:42:50;;;;;;;248.80;12.32;;;;;;;;;;5024303;28;20054;-64
2022/01/23 09:45:18;;;;;;;124.83;7.27;;;;;;;;;;5027054;28;20088;-64
2022/01/23 09:47:44;;;;;;;492.80;22.47;;;;;;;;;;5022249;28;20379;-64
2022/01/23 09:50:11;;;;;;;279.30;14.38;;;;;;;;;;5024833;28;20378;-64
2022/01/23 09:52:39;;;;;;;593.55;27.88;;;;;;;;;;5027070;28;20158;-64
2022/01/23 09:55:09;;;;;;;543.22;22.58;;;;;;;;;;5024361;28;20087;-64
2022/01/23 09:57:43;;;;;;;575.38;27.60;;;;;;;;;;5020835;28;20129;-64
2022/01/23 10:00:18;;;;;;;504.58;24.35;;;;;;;;;;5017604;28;20041;-64
2022/01/23 10:02:50;;;;;;;313.42;15.35;;;;;;;;;;5023929;28;20103;-63
2022/01/23 10:05:23;;;;;;;770.58;35.80;;;;;;;;;;5022330;28;20487;-64
2022/01/23 10:07:51;;;;;;;564.00;25.65;;;;;;;;;;5019009;28;22584;-64
2022/01/23 10:10:22;;;;;;;358.35;15.80;;;;;;;;;;5024056;28;20132;-64
2022/01/23 10:12:56;;;;;;;551.50;24.73;;;;;;;;;;5024048;28;20061;-64
2022/01/23 10:15:27;;;;;;;241.50;12.73;;;;;;;;;;5026594;28;20080;-64
2022/01/23 10:17:54;;;;;;;543.83;25.40;;;;;;;;;;5028242;28;20153;-64
2022/01/23 10:20:20;;;;;;;153.50;7.50;;;;;;;;;;5028019;28;20064;-63
2022/01/23 10:22:49;;;;;;;587.60;27.52;;;;;;;;;;5026985;28;20057;-64
2022/01/23 10:25:20;;;;;;;582.58;26.83;;;;;;;;;;5027880;28;20104;-64
2022/01/23 10:27:55;;;;;;;150.25;9.93;;;;;;;;;;5023188;28;20042;-64
2022/01/23 10:30:26;;;;;;;593.88;27.65;;;;;;;;;;5025164;28;20141;-64
2022/01/23 10:32:57;;;;;;;545.22;27.00;;;;;;;;;;5026447;28;20145;-64
2022/01/23 10:35:24;;;;;;;795.50;39.55;;;;;;;;;;5025997;28;20088;-64
2022/01/23 10:37:52;;;;;;;659.43;29.83;;;;;;;;;;5023753;28;20154;-64
2022/01/23 10:40:22;;;;;;;483.75;22.08;;;;;;;;;;5028185;28;20136;-64
2022/01/23 10:46:33;;;;;;;261.92;14.48;;;;;;;;;;5027979;28;20482;-64
2022/01/23 10:48:36;;;;;;;675.72;30.73;;;;;;;;;;5025009;28;20524;-63
2022/01/23 10:51:02;;;;;;;;;;;;;;;;;;5023388;28;20065;-62
2022/01/23 10:53:29;;;;;;;463.45;21.23;;;;;;;;;;5025343;28;20428;-62
2022/01/23 10:56:05;;;;;;;476.55;23.38;;;;;;;;;;5025172;28;20132;-62
2022/01/23 10:58:31;;;;;;;75.05;8.45;;;;;;;;;;5021582;28;20140;-62
2022/01/23 11:01:05;;;;;;;200.95;14.00;;;;;;;;;;5026069;28;20132;-63
2022/01/23 11:03:32;;;;;;;708.55;33.40;;;;;;;;;;5025756;28;20050;-63
2022/01/23 11:05:58;;;;;;;476.35;23.52;;;;;;;;;;5024503;28;20077;-64
2022/01/23 11:08:30;;;;;;;247.25;16.00;;;;;;;;;;5024166;28;20128;-63
2022/01/23 11:10:59;;;;;;;319.10;19.00;;;;;;;;;;5026405;28;20089;-63
2022/01/23 11:19:27;;;;;;;83.47;8.20;;;;;;;;;;5021875;28;20072;-63
2022/01/23 11:21:54;;;;;;;143.65;11.68;;;;;;;;;;5023580;28;20077;-63
2022/01/23 11:24:21;;;;;;;50.13;12.68;;;;;;;;;;5022850;28;20084;-63
2022/01/23 11:26:48;;;;;;;34.13;9.35;;;;;;;;;;5009087;28;20076;-63
2022/01/23 11:29:17;;;;;;;31.10;7.10;;;;;;;;;;5025367;28;20140;-63
2022/01/23 11:31:44;;;;;;;34.17;7.55;;;;;;;;;;5024737;28;20754;-63
2022/01/23 11:34:13;;;;;;;35.28;8.23;;;;;;;;;;5021516;28;20490;-63
2022/01/23 11:36:40;;;;;;;43.30;7.45;;;;;;;;;;5022907;28;20168;-64
2022/01/23 11:39:15;;;;;;;20.35;6.85;;;;;;;;;;5025890;28;20081;-62
2022/01/23 11:56:43;;;;;;;;;;;;;;;;;;4944331;28;20563;-63
2022/01/23 11:59:25;;;;;;;15.13;4.05;;;;;;;;;;5008452;28;20026;-63
2022/01/23 12:02:14;;;;;;;27.45;5.60;;;;;;;;;;5020282;28;20525;-63
2022/01/23 12:04:42;;;;;;;14.77;4.15;;;;;;;;;;5024882;28;20060;-62
2022/01/23 12:07:10;;;;;;;18.92;4.22;;;;;;;;;;5021975;28;20053;-62
2022/01/23 12:09:36;;;;;;;;;;;;;;;;;;5020839;28;20073;-62
2022/01/23 12:12:19;;;;;;;24.77;4.90;;;;;;;;;;5020157;28;19929;-62
2022/01/23 12:17:16;;;;;;;20.33;5.07;;;;;;;;;;5018798;28;20054;-62
2022/01/23 12:19:47;;;;;;;13.38;4.03;;;;;;;;;;5018703;28;20041;-63
2022/01/23 12:22:24;;;;;;;15.45;4.55;;;;;;;;;;5015938;28;20116;-62
2022/01/23 12:24:52;;;;;;;28.52;8.85;;;;;;;;;;5021087;28;20057;-63
2022/01/23 12:27:23;;;;;;;16.40;5.05;;;;;;;;;;5019932;28;20488;-62
2022/01/23 12:29:50;;;;;;;12.50;4.50;;;;;;;;;;5017038;28;20420;-63
2022/01/23 12:32:17;;;;;;;;;;;;;;;;;;5019520;28;20048;-62
2022/01/23 12:34:51;;;;;;;10.00;3.78;;;;;;;;;;5023100;28;19925;-62
2022/01/23 12:37:18;;;;;;;16.23;4.88;;;;;;;;;;5024570;28;20103;-62
2022/01/23 12:39:46;;;;;;;24.58;5.43;;;;;;;;;;5018240;28;20057;-62
2022/01/23 12:42:12;;;;;;;17.42;4.93;;;;;;;;;;5020533;28;20049;-63
2022/01/23 12:44:39;;;;;;;13.63;6.13;;;;;;;;;;5020719;28;20488;-62
2022/01/23 12:47:19;;;;;;;12.50;4.78;;;;;;;;;;5022180;28;20051;-62
2022/01/23 12:49:52;;;;;;;15.90;5.57;;;;;;;;;;5020135;28;20495;-62
2022/01/23 12:52:20;;;;;;;23.48;6.50;;;;;;;;;;5020462;28;20047;-62
2022/01/23 12:54:46;;;;;;;;;;;;;;;;;;5019531;28;20192;-62
2022/01/23 12:57:23;;;;;;;25.83;5.60;;;;;;;;;;5018343;28;19928;-62
2022/01/23 12:59:54;;;;;;;33.85;6.47;;;;;;;;;;5017664;28;20073;-62
2022/01/23 13:02:27;;;;;;;20.17;5.65;;;;;;;;;;5017671;28;20460;-63
2022/01/23 13:04:55;;;;;;;24.10;5.43;;;;;;;;;;5024440;28;20049;-62
2022/01/23 13:10:06;;;;;;;20.65;8.30;;;;;;;;;;5017729;28;20165;-62
2022/01/23 13:15:25;;;;;;;19.63;7.60;;;;;;;;;;5022746;28;20056;-63
2022/01/23 13:32:14;;;;;;;21.75;6.28;;;;;;;;;;5006654;28;20069;-63
2022/01/23 13:34:49;;;;;;;33.78;6.97;;;;;;;;;;5027691;28;20477;-63
2022/01/23 13:37:18;;;;;;;19.83;6.60;;;;;;;;;;5026443;28;20144;-64
2022/01/23 13:39:49;;;;;;;24.17;8.07;;;;;;;;;;5022098;28;20053;-64
2022/01/23 13:53:31;;;;;;;28.45;7.03;;;;;;;;;;5024436;28;20115;-64
2022/01/23 13:58:53;;;;;;;22.08;7.20;;;;;;;;;;4989902;28;20080;-64
2022/01/23 14:03:53;;;;;;;28.70;7.88;;;;;;;;;;5018087;28;20099;-64
2022/01/23 14:06:20;;;;;;;19.25;6.38;;;;;;;;;;5019516;28;20054;-64
2022/01/23 14:09:04;;;;;;;25.08;6.45;;;;;;;;;;5025786;28;20045;-64
2022/01/23 14:11:30;;;;;;;30.38;7.32;;;;;;;;;;5025710;28;20081;-64
2022/01/23 14:14:08;;;;;;;29.05;6.45;;;;;;;;;;5027593;28;20053;-64
2022/01/23 14:16:35;;;;;;;27.40;6.13;;;;;;;;;;5027218;28;20128;-64
2022/01/23 14:19:14;;;;;;;26.92;5.68;;;;;;;;;;5022126;28;20844;-64
2022/01/23 14:21:44;;;;;;;30.60;5.93;;;;;;;;;;5023090;28;20112;-66
2022/01/23 14:24:11;;;;;;;;;;;;;;;;;;5021856;28;20072;-64
2022/01/23 14:26:37;;;;;;;27.45;6.13;;;;;;;;;;5024439;28;20175;-64
2022/01/23 14:29:05;;;;;;;28.50;5.55;;;;;;;;;;5027370;28;20060;-64
2022/01/23 14:31:37;;;;;;;40.40;7.03;;;;;;;;;;5027283;28;20140;-64
2022/01/23 14:34:23;;;;;;;38.40;6.90;;;;;;;;;;5018333;28;20478;-64
2022/01/23 14:36:56;;;;;;;29.10;7.10;;;;;;;;;;5019866;28;20169;-64
2022/01/23 14:39:23;;;;;;;36.28;6.32;;;;;;;;;;5021204;28;20076;-64
2022/01/23 14:41:50;;;;;;;28.10;4.93;;;;;;;;;;5022605;28;20145;-64
2022/01/23 14:44:24;;;;;;;44.33;6.63;;;;;;;;;;5019219;28;21182;-64
2022/01/23 14:46:52;;;;;;;31.90;5.38;;;;;;;;;;5022387;28;20048;-64
2022/01/23 14:49:24;;;;;;;28.65;5.90;;;;;;;;;;5020202;28;20052;-64
2022/01/23 14:51:51;;;;;;;48.22;6.10;;;;;;;;;;5026219;28;20053;-64
2022/01/23 14:54:18;;;;;;;41.15;5.68;;;;;;;;;;5028080;28;20124;-64
2022/01/23 14:56:45;;;;;;;30.23;5.93;;;;;;;;;;5021902;28;20145;-64
2022/01/23 14:59:13;;;;;;;36.70;5.80;;;;;;;;;;5022290;28;20048;-64
2022/01/23 15:01:40;;;;;;;25.70;5.82;;;;;;;;;;5021649;28;20053;-63
2022/01/23 15:04:08;;;;;;;34.00;4.93;;;;;;;;;;5020482;28;20068;-63
2022/01/23 15:06:40;;;;;;;33.15;5.03;;;;;;;;;;5019054;28;20056;-64
2022/01/23 15:09:08;;;;;;;37.72;5.15;;;;;;;;;;5020104;28;20140;-64
2022/01/23 15:11:35;;;;;;;32.15;5.18;;;;;;;;;;5019887;28;20076;-63
2022/01/23 15:14:02;;;;;;;31.38;4.22;;;;;;;;;;5020746;28;20124;-64
2022/01/23 15:16:29;;;;;;;45.00;5.35;;;;;;;;;;5023757;28;20120;-64
2022/01/23 15:18:55;;;;;;;40.53;4.95;;;;;;;;;;5023337;28;20112;-63
2022/01/23 15:21:22;;;;;;;39.92;4.82;;;;;;;;;;5015993;28;20563;-64
2022/01/23 15:23:55;;;;;;;40.95;4.80;;;;;;;;;;5020867;28;20174;-63
2022/01/23 15:26:29;;;;;;;31.90;4.30;;;;;;;;;;5020037;28;20179;-64
2022/01/23 15:28:56;;;;;;;38.95;5.75;;;;;;;;;;5018621;28;20132;-64
2022/01/23 15:31:26;;;;;;;29.83;5.10;;;;;;;;;;5019857;28;20140;-63
2022/01/23 15:33:53;;;;;;;38.63;3.63;;;;;;;;;;5019781;28;20048;-64
2022/01/23 15:36:20;;;;;;;34.60;3.80;;;;;;;;;;5021334;28;20415;-64
2022/01/23 15:38:47;;;;;;;28.38;4.47;;;;;;;;;;5021662;28;22026;-64
2022/01/23 15:41:13;;;;;;;40.45;4.70;;;;;;;;;;5018753;28;20139;-64
2022/01/23 15:43:40;;;;;;;34.35;4.32;;;;;;;;;;5020222;28;20132;-64
2022/01/23 15:46:06;;;;;;;36.58;4.47;;;;;;;;;;5018131;28;20056;-64
2022/01/23 15:48:33;;;;;;;36.33;4.93;;;;;;;;;;5019679;28;20581;-64
2022/01/23 15:51:00;;;;;;;34.33;3.95;;;;;;;;;;5018533;28;20049;-64
2022/01/23 15:53:26;;;;;;;39.67;4.85;;;;;;;;;;5020698;28;20592;-64
2022/01/23 15:55:53;;;;;;;40.33;4.35;;;;;;;;;;5018410;28;20144;-64
2022/01/23 15:58:19;;;;;;;38.97;4.55;;;;;;;;;;5019050;28;20128;-64
2022/01/23 16:00:46;;;;;;;39.10;4.22;;;;;;;;;;5019852;28;20076;-64
2022/01/23 16:03:12;;;;;;;32.63;4.70;;;;;;;;;;5021834;28;20583;-63
2022/01/23 16:05:39;;;;;;;29.83;3.53;;;;;;;;;;5017589;28;20053;-64
2022/01/23 16:08:06;;;;;;;31.08;4.32;;;;;;;;;;5018424;28;20530;-63
2022/01/23 16:10:32;;;;;;;29.30;4.35;;;;;;;;;;5020974;28;20136;-64
2022/01/23 16:12:59;;;;;;;48.05;5.65;;;;;;;;;;5021993;28;20073;-63
2022/01/23 16:15:25;;;;;;;41.53;4.80;;;;;;;;;;5020716;28;20513;-63
2022/01/23 16:17:52;;;;;;;43.00;4.33;;;;;;;;;;5018109;28;20113;-63
2022/01/23 16:20:19;;;;;;;31.02;4.78;;;;;;;;;;5020552;28;20132;-64
2022/01/23 16:22:45;;;;;;;49.97;5.18;;;;;;;;;;5021083;28;20136;-64
2022/01/23 16:25:12;;;;;;;31.33;4.30;;;;;;;;;;5019723;28;20136;-64
2022/01/23 16:27:39;;;;;;;37.58;5.28;;;;;;;;;;5019475;28;20639;-63
2022/01/23 16:30:16;;;;;;;42.63;4.38;;;;;;;;;;5008585;28;20053;-63
2022/01/23 16:32:43;;;;;;;40.42;4.70;;;;;;;;;;5017704;28;20493;-64
2022/01/23 16:35:11;;;;;;;44.95;5.20;;;;;;;;;;5019434;28;20136;-64
2022/01/23 16:37:37;;;;;;;29.70;4.00;;;;;;;;;;5018458;28;20077;-64
2022/01/23 16:40:04;;;;;;;36.25;5.05;;;;;;;;;;5018831;28;20144;-63
2022/01/23 16:42:30;;;;;;;33.33;3.73;;;;;;;;;;5022500;28;20075;-64
2022/01/23 16:44:57;;;;;;;36.70;4.82;;;;;;;;;;5017924;28;20406;-63
2022/01/23 16:47:23;;;;;;;36.75;4.47;;;;;;;;;;5012341;28;20360;-64
2022/01/23 16:49:50;;;;;;;41.72;4.68;;;;;;;;;;5017971;28;20060;-64
2022/01/23 16:52:16;;;;;;;30.58;4.88;;;;;;;;;;5025454;28;20103;-64
2022/01/23 16:54:49;;;;;;;29.25;4.53;;;;;;;;;;5023582;28;20509;-64
2022/01/23 16:57:19;;;;;;;36.13;5.40;;;;;;;;;;5022029;28;20416;-64
2022/01/23 16:59:46;;;;;;;36.67;3.70;;;;;;;;;;5022458;28;20476;-64
2022/01/23 17:02:19;;;;;;;36.45;4.90;;;;;;;;;;5020330;28;20580;-64
2022/01/23 17:04:45;;;;;;;44.77;5.73;;;;;;;;;;5024199;28;20480;-64
2022/01/23 17:07:12;;;;;;;33.20;4.90;;;;;;;;;;5022664;28;20084;-64
2022/01/23 17:09:44;;;;;;;36.65;4.57;;;;;;;;;;5023827;28;20171;-64
2022/01/23 17:12:11;;;;;;;36.20;5.93;;;;;;;;;;5023653;28;20069;-64
2022/01/23 17:14:37;;;;;;;33.35;4.90;;;;;;;;;;5024449;28;20456;-64
2022/01/23 17:17:04;;;;;;;32.97;4.50;;;;;;;;;;5024538;28;20049;-64
2022/01/23 17:19:31;;;;;;;47.53;5.57;;;;;;;;;;5022118;28;20076;-65
2022/01/23 17:21:57;;;;;;;34.00;4.40;;;;;;;;;;5021337;28;20064;-64
2022/01/23 17:24:28;;;;;;;46.05;5.75;;;;;;;;;;5026415;28;20049;-64
2022/01/23 17:26:55;;;;;;;32.30;4.80;;;;;;;;;;5023830;28;20544;-64
2022/01/23 17:29:22;;;;;;;36.72;5.93;;;;;;;;;;5024677;28;20164;-64
2022/01/23 17:31:49;;;;;;;34.03;5.68;;;;;;;;;;5023273;28;20088;-64
2022/01/23 17:34:15;;;;;;;38.67;4.82;;;;;;;;;;5024670;28;20556;-64
2022/01/23 17:36:42;;;;;;;39.80;5.25;;;;;;;;;;5023505;28;20054;-64
2022/01/23 17:39:08;;;;;;;41.63;4.50;;;;;;;;;;5021307;28;20129;-64